createdAt,value
2017-12-19T00:00:02.964Z,1023.38
2017-12-19T00:01:02.966Z,1023.39
2017-12-19T00:02:02.972Z,1023.39
2017-12-19T00:03:02.971Z,1023.40
2017-12-19T00:04:02.996Z,1023.37
2017-12-19T00:05:02.988Z,1023.36
2017-12-19T00:06:02.986Z,1023.39
2017-12-19T00:07:02.994Z,1023.38
2017-12-19T00:08:02.993Z,1023.39
2017-12-19T00:09:03.007Z,1023.38
2017-12-19T00:10:03.010Z,1023.42
2017-12-19T00:11:03.013Z,1023.44
2017-12-19T00:12:03.026Z,1023.45
2017-12-19T00:13:03.027Z,1023.47
2017-12-19T00:14:03.030Z,1023.55
2017-12-19T00:15:03.046Z,1023.62
2017-12-19T00:16:03.077Z,1023.61
2017-12-19T00:17:03.049Z,1023.66
2017-12-19T00:18:03.054Z,1023.64
2017-12-19T00:19:03.065Z,1023.68
2017-12-19T00:20:03.067Z,1023.63
2017-12-19T00:21:03.064Z,1023.64
2017-12-19T00:22:03.089Z,1023.63
2017-12-19T00:23:03.078Z,1023.65
2017-12-19T00:24:03.102Z,1023.70
2017-12-19T00:25:03.092Z,1023.80
2017-12-19T00:26:03.098Z,1023.84
2017-12-19T00:27:03.112Z,1023.78
2017-12-19T00:28:03.112Z,1023.74
2017-12-19T00:29:03.121Z,1023.70
2017-12-19T00:30:03.125Z,1023.78
2017-12-19T00:31:03.126Z,1023.82
2017-12-19T00:32:03.153Z,1023.88
2017-12-19T00:33:03.141Z,1023.90
2017-12-19T00:34:03.148Z,1023.88
2017-12-19T00:35:03.160Z,1023.90
2017-12-19T00:36:03.163Z,1023.93
2017-12-19T00:37:03.167Z,1023.98
2017-12-19T00:38:03.177Z,1024.02
2017-12-19T00:39:03.202Z,1023.98
2017-12-19T00:40:03.188Z,1023.94
2017-12-19T00:41:03.188Z,1023.90
2017-12-19T00:42:03.232Z,1023.93
2017-12-19T00:43:03.212Z,1023.96
2017-12-19T00:44:03.198Z,1023.94
2017-12-19T00:45:03.217Z,1024.05
2017-12-19T00:46:03.217Z,1024.05
2017-12-19T00:47:03.223Z,1024.08
2017-12-19T00:48:03.234Z,1024.13
2017-12-19T00:49:03.235Z,1024.16
2017-12-19T00:50:03.245Z,1024.17
2017-12-19T00:51:03.245Z,1024.16
2017-12-19T00:52:03.253Z,1024.11
2017-12-19T00:53:03.256Z,1024.16
2017-12-19T00:54:03.275Z,1024.13
2017-12-19T00:55:03.312Z,1024.15
2017-12-19T00:56:03.275Z,1024.15
2017-12-19T00:57:03.280Z,1024.20
2017-12-19T00:58:03.284Z,1024.16
2017-12-19T00:59:03.298Z,1024.15
2017-12-19T01:00:03.292Z,1024.14
2017-12-19T01:01:03.302Z,1024.12
2017-12-19T01:02:03.313Z,1024.11
2017-12-19T01:03:03.314Z,1024.15
2017-12-19T01:04:03.329Z,1024.10
2017-12-19T01:05:03.318Z,1024.11
2017-12-19T01:06:03.441Z,1024.13
2017-12-19T01:07:03.340Z,1024.10
2017-12-19T01:08:03.419Z,1024.18
2017-12-19T01:10:03.451Z,1024.20
2017-12-19T01:11:03.442Z,1024.25
2017-12-19T01:12:03.382Z,1024.28
2017-12-19T01:13:03.396Z,1024.29
2017-12-19T01:14:03.379Z,1024.29
2017-12-19T01:15:03.379Z,1024.26
2017-12-19T01:16:03.475Z,1024.28
2017-12-19T01:17:03.388Z,1024.27
2017-12-19T01:18:03.451Z,1024.30
2017-12-19T01:19:03.400Z,1024.35
2017-12-19T01:20:03.406Z,1024.40
2017-12-19T01:21:03.415Z,1024.43
2017-12-19T01:22:03.419Z,1024.52
2017-12-19T01:23:04.119Z,1024.55
2017-12-19T01:24:03.438Z,1024.57
2017-12-19T01:25:03.432Z,1024.52
2017-12-19T01:26:03.446Z,1024.57
2017-12-19T01:28:03.459Z,1024.58
2017-12-19T01:29:03.454Z,1024.57
2017-12-19T01:30:03.459Z,1024.62
2017-12-19T01:31:03.475Z,1024.63
2017-12-19T01:32:03.478Z,1024.69
2017-12-19T01:33:03.474Z,1024.72
2017-12-19T01:34:03.492Z,1024.70
2017-12-19T01:35:03.491Z,1024.69
2017-12-19T01:36:03.497Z,1024.72
2017-12-19T01:37:03.504Z,1024.71
2017-12-19T01:38:03.506Z,1024.78
2017-12-19T01:39:03.519Z,1024.73
2017-12-19T01:40:03.522Z,1024.74
2017-12-19T01:41:03.518Z,1024.76
2017-12-19T01:42:03.534Z,1024.78
2017-12-19T01:43:03.540Z,1024.71
2017-12-19T01:44:03.545Z,1024.69
2017-12-19T01:45:03.548Z,1024.67
2017-12-19T01:47:03.561Z,1024.69
2017-12-19T01:48:03.559Z,1024.69
2017-12-19T01:49:03.573Z,1024.65
2017-12-19T01:50:03.576Z,1024.70
2017-12-19T01:51:03.578Z,1024.70
2017-12-19T01:52:03.587Z,1024.75
2017-12-19T01:53:03.592Z,1024.82
2017-12-19T01:54:03.613Z,1024.79
2017-12-19T01:55:03.606Z,1024.79
2017-12-19T01:56:03.598Z,1024.86
2017-12-19T01:57:03.618Z,1024.81
2017-12-19T01:58:03.620Z,1024.78
2017-12-19T01:59:03.626Z,1024.78
2017-12-19T02:00:03.634Z,1024.79
2017-12-19T02:01:03.635Z,1024.69
2017-12-19T02:02:03.653Z,1024.71
2017-12-19T02:03:03.653Z,1024.74
2017-12-19T02:04:03.653Z,1024.74
2017-12-19T02:05:03.663Z,1024.68
2017-12-19T02:06:03.671Z,1024.70
2017-12-19T02:07:03.674Z,1024.72
2017-12-19T02:08:03.691Z,1024.69
2017-12-19T02:09:03.688Z,1024.75
2017-12-19T02:10:03.691Z,1024.70
2017-12-19T02:11:03.696Z,1024.75
2017-12-19T02:12:03.703Z,1024.70
2017-12-19T02:13:03.710Z,1024.69
2017-12-19T02:14:04.620Z,1024.71
2017-12-19T02:15:03.720Z,1024.70
2017-12-19T02:16:03.723Z,1024.75
2017-12-19T02:17:03.729Z,1024.76
2017-12-19T02:18:03.738Z,1024.75
2017-12-19T02:19:03.735Z,1024.73
2017-12-19T02:20:03.742Z,1024.76
2017-12-19T02:21:03.749Z,1024.78
2017-12-19T02:22:03.753Z,1024.83
2017-12-19T02:23:03.766Z,1024.81
2017-12-19T02:24:03.759Z,1024.75
2017-12-19T02:25:03.774Z,1024.80
2017-12-19T02:26:03.782Z,1024.78
2017-12-19T02:27:03.786Z,1024.81
2017-12-19T02:28:03.783Z,1024.75
2017-12-19T02:29:03.791Z,1024.74
2017-12-19T02:30:03.808Z,1024.71
2017-12-19T02:31:03.818Z,1024.71
2017-12-19T02:32:03.818Z,1024.71
2017-12-19T02:33:03.939Z,1024.68
2017-12-19T02:34:03.825Z,1024.67
2017-12-19T02:35:03.834Z,1024.69
2017-12-19T02:36:03.841Z,1024.72
2017-12-19T02:37:03.890Z,1024.71
2017-12-19T02:38:03.850Z,1024.75
2017-12-19T02:39:03.856Z,1024.79
2017-12-19T02:40:03.860Z,1024.82
2017-12-19T02:41:03.866Z,1024.83
2017-12-19T02:42:03.881Z,1024.77
2017-12-19T02:43:03.877Z,1024.79
2017-12-19T02:44:03.883Z,1024.74
2017-12-19T02:45:03.892Z,1024.72
2017-12-19T02:46:03.893Z,1024.67
2017-12-19T02:47:03.892Z,1024.65
2017-12-19T02:48:03.922Z,1024.66
2017-12-19T02:49:03.906Z,1024.65
2017-12-19T02:50:03.908Z,1024.65
2017-12-19T02:51:03.920Z,1024.62
2017-12-19T02:52:03.920Z,1024.62
2017-12-19T02:53:03.935Z,1024.59
2017-12-19T02:54:03.938Z,1024.60
2017-12-19T02:55:04.004Z,1024.59
2017-12-19T02:56:03.951Z,1024.55
2017-12-19T02:57:03.958Z,1024.55
2017-12-19T02:58:03.967Z,1024.50
2017-12-19T02:59:03.968Z,1024.52
2017-12-19T03:00:03.976Z,1024.54
2017-12-19T03:01:03.979Z,1024.54
2017-12-19T03:02:03.985Z,1024.53
2017-12-19T03:03:03.988Z,1024.49
2017-12-19T03:04:04.001Z,1024.55
2017-12-19T03:05:03.999Z,1024.54
2017-12-19T03:06:04.004Z,1024.55
2017-12-19T03:07:04.059Z,1024.55
2017-12-19T03:08:04.023Z,1024.56
2017-12-19T03:09:04.019Z,1024.56
2017-12-19T03:10:04.034Z,1024.54
2017-12-19T03:11:04.033Z,1024.56
2017-12-19T03:12:04.037Z,1024.49
2017-12-19T03:13:04.041Z,1024.58
2017-12-19T03:14:04.049Z,1024.53
2017-12-19T03:15:04.057Z,1024.51
2017-12-19T03:16:04.222Z,1024.56
2017-12-19T03:17:04.236Z,1024.57
2017-12-19T03:18:04.076Z,1024.53
2017-12-19T03:19:04.072Z,1024.54
2017-12-19T03:20:04.091Z,1024.53
2017-12-19T03:21:04.148Z,1024.56
2017-12-19T03:22:04.094Z,1024.58
2017-12-19T03:23:04.109Z,1024.54
2017-12-19T03:24:04.103Z,1024.53
2017-12-19T03:25:04.107Z,1024.58
2017-12-19T03:26:04.112Z,1024.56
2017-12-19T03:27:04.116Z,1024.55
2017-12-19T03:28:04.200Z,1024.52
2017-12-19T03:29:04.131Z,1024.56
2017-12-19T03:30:04.138Z,1024.61
2017-12-19T03:31:04.139Z,1024.60
2017-12-19T03:32:04.148Z,1024.56
2017-12-19T03:33:04.151Z,1024.57
2017-12-19T03:34:04.159Z,1024.53
2017-12-19T03:35:04.163Z,1024.53
2017-12-19T03:36:04.170Z,1024.52
2017-12-19T03:37:04.167Z,1024.54
2017-12-19T03:38:04.181Z,1024.51
2017-12-19T03:39:04.187Z,1024.55
2017-12-19T03:40:04.194Z,1024.57
2017-12-19T03:41:04.199Z,1024.55
2017-12-19T03:42:04.202Z,1024.58
2017-12-19T03:43:04.218Z,1024.62
2017-12-19T03:44:04.393Z,1024.58
2017-12-19T03:45:04.218Z,1024.60
2017-12-19T03:46:04.252Z,1024.58
2017-12-19T03:47:04.228Z,1024.64
2017-12-19T03:48:04.232Z,1024.65
2017-12-19T03:49:04.240Z,1024.58
2017-12-19T03:50:04.250Z,1024.64
2017-12-19T03:51:04.247Z,1024.65
2017-12-19T03:52:04.258Z,1024.69
2017-12-19T03:53:04.268Z,1024.64
2017-12-19T03:54:04.267Z,1024.62
2017-12-19T03:55:04.274Z,1024.65
2017-12-19T03:56:04.272Z,1024.65
2017-12-19T03:57:04.295Z,1024.65
2017-12-19T03:58:04.336Z,1024.60
2017-12-19T03:59:04.295Z,1024.62
2017-12-19T04:00:04.301Z,1024.66
2017-12-19T04:01:04.293Z,1024.64
2017-12-19T04:02:04.308Z,1024.69
2017-12-19T04:03:04.314Z,1024.69
2017-12-19T04:04:04.321Z,1024.66
2017-12-19T04:05:04.330Z,1024.66
2017-12-19T04:06:04.334Z,1024.68
2017-12-19T04:07:04.345Z,1024.66
2017-12-19T04:08:04.340Z,1024.66
2017-12-19T04:09:04.346Z,1024.66
2017-12-19T04:10:04.360Z,1024.65
2017-12-19T04:11:04.370Z,1024.66
2017-12-19T04:12:04.365Z,1024.63
2017-12-19T04:13:04.369Z,1024.62
2017-12-19T04:14:04.374Z,1024.65
2017-12-19T04:15:04.376Z,1024.68
2017-12-19T04:16:04.382Z,1024.65
2017-12-19T04:17:04.389Z,1024.66
2017-12-19T04:18:04.397Z,1024.66
2017-12-19T04:19:04.405Z,1024.65
2017-12-19T04:20:04.407Z,1024.62
2017-12-19T04:21:04.546Z,1024.63
2017-12-19T04:22:04.448Z,1024.64
2017-12-19T04:23:04.421Z,1024.58
2017-12-19T04:24:04.432Z,1024.61
2017-12-19T04:25:04.434Z,1024.58
2017-12-19T04:26:04.436Z,1024.56
2017-12-19T04:27:04.444Z,1024.58
2017-12-19T04:28:04.450Z,1024.64
2017-12-19T04:29:04.450Z,1024.65
2017-12-19T04:30:04.462Z,1024.67
2017-12-19T04:31:04.461Z,1024.69
2017-12-19T04:32:04.467Z,1024.67
2017-12-19T04:33:04.466Z,1024.71
2017-12-19T04:34:04.487Z,1024.72
2017-12-19T04:35:04.490Z,1024.74
2017-12-19T04:36:04.486Z,1024.71
2017-12-19T04:37:04.584Z,1024.66
2017-12-19T04:38:04.511Z,1024.71
2017-12-19T04:39:04.555Z,1024.77
2017-12-19T04:40:04.508Z,1024.75
2017-12-19T04:41:04.515Z,1024.76
2017-12-19T04:42:04.526Z,1024.76
2017-12-19T04:43:04.526Z,1024.75
2017-12-19T04:44:04.533Z,1024.76
2017-12-19T04:45:04.539Z,1024.82
2017-12-19T04:46:04.543Z,1024.81
2017-12-19T04:47:04.547Z,1024.83
2017-12-19T04:48:04.558Z,1024.84
2017-12-19T04:49:04.558Z,1024.93
2017-12-19T04:50:04.564Z,1024.89
2017-12-19T04:51:04.569Z,1024.92
2017-12-19T04:52:04.578Z,1024.94
2017-12-19T04:53:04.586Z,1024.98
2017-12-19T04:54:04.584Z,1025.00
2017-12-19T04:55:04.591Z,1025.04
2017-12-19T04:56:04.597Z,1024.98
2017-12-19T04:57:04.604Z,1024.97
2017-12-19T04:58:04.607Z,1024.96
2017-12-19T04:59:04.617Z,1024.98
2017-12-19T05:00:04.618Z,1024.98
2017-12-19T05:01:04.629Z,1024.98
2017-12-19T05:02:04.635Z,1024.96
2017-12-19T05:03:04.635Z,1024.99
2017-12-19T05:04:04.740Z,1025.02
2017-12-19T05:05:04.648Z,1025.01
2017-12-19T05:06:04.648Z,1025.06
2017-12-19T05:07:04.653Z,1025.05
2017-12-19T05:08:04.663Z,1025.04
2017-12-19T05:09:04.674Z,1025.08
2017-12-19T05:10:04.668Z,1025.07
2017-12-19T05:11:04.679Z,1025.09
2017-12-19T05:12:04.680Z,1025.10
2017-12-19T05:13:04.702Z,1025.12
2017-12-19T05:14:04.797Z,1025.12
2017-12-19T05:15:04.709Z,1025.13
2017-12-19T05:16:04.709Z,1025.15
2017-12-19T05:17:04.709Z,1025.12
2017-12-19T05:18:05.427Z,1025.09
2017-12-19T05:19:04.721Z,1025.10
2017-12-19T05:20:04.725Z,1025.11
2017-12-19T05:21:04.731Z,1025.08
2017-12-19T05:22:04.735Z,1025.08
2017-12-19T05:23:04.773Z,1025.11
2017-12-19T05:24:04.751Z,1025.16
2017-12-19T05:25:04.755Z,1025.20
2017-12-19T05:26:04.756Z,1025.22
2017-12-19T05:27:04.765Z,1025.24
2017-12-19T05:28:04.856Z,1025.31
2017-12-19T05:29:04.773Z,1025.32
2017-12-19T05:30:04.791Z,1025.35
2017-12-19T05:31:04.789Z,1025.35
2017-12-19T05:32:04.800Z,1025.41
2017-12-19T05:33:04.800Z,1025.39
2017-12-19T05:34:04.801Z,1025.37
2017-12-19T05:35:04.814Z,1025.37
2017-12-19T05:36:04.819Z,1025.34
2017-12-19T05:37:04.826Z,1025.39
2017-12-19T05:38:04.820Z,1025.40
2017-12-19T05:39:04.853Z,1025.36
2017-12-19T05:40:04.849Z,1025.38
2017-12-19T05:41:04.853Z,1025.36
2017-12-19T05:42:04.852Z,1025.38
2017-12-19T05:43:04.863Z,1025.39
2017-12-19T05:44:04.866Z,1025.44
2017-12-19T05:45:04.871Z,1025.44
2017-12-19T05:46:04.877Z,1025.42
2017-12-19T05:47:04.880Z,1025.43
2017-12-19T05:48:04.887Z,1025.41
2017-12-19T05:49:04.889Z,1025.45
2017-12-19T05:50:04.910Z,1025.41
2017-12-19T05:51:04.908Z,1025.45
2017-12-19T05:52:04.912Z,1025.39
2017-12-19T05:53:04.914Z,1025.45
2017-12-19T05:54:04.915Z,1025.45
2017-12-19T05:55:04.927Z,1025.46
2017-12-19T05:56:04.929Z,1025.46
2017-12-19T05:57:04.935Z,1025.50
2017-12-19T05:58:04.941Z,1025.46
2017-12-19T05:59:04.948Z,1025.48
2017-12-19T06:00:04.948Z,1025.52
2017-12-19T06:01:04.962Z,1025.51
2017-12-19T06:02:04.961Z,1025.57
2017-12-19T06:03:04.968Z,1025.53
2017-12-19T06:04:04.976Z,1025.59
2017-12-19T06:05:04.979Z,1025.67
2017-12-19T06:06:04.981Z,1025.64
2017-12-19T06:07:04.988Z,1025.65
2017-12-19T06:08:04.997Z,1025.64
2017-12-19T06:09:05.008Z,1025.61
2017-12-19T06:10:05.008Z,1025.57
2017-12-19T06:11:05.017Z,1025.62
2017-12-19T06:12:05.017Z,1025.66
2017-12-19T06:13:05.022Z,1025.65
2017-12-19T06:14:05.032Z,1025.66
2017-12-19T06:15:05.075Z,1025.70
2017-12-19T06:16:05.266Z,1025.69
2017-12-19T06:17:05.052Z,1025.77
2017-12-19T06:18:05.044Z,1025.73
2017-12-19T06:19:05.122Z,1025.76
2017-12-19T06:20:05.063Z,1025.81
2017-12-19T06:21:05.064Z,1025.74
2017-12-19T06:22:05.078Z,1025.81
2017-12-19T06:23:05.080Z,1025.81
2017-12-19T06:24:05.081Z,1025.80
2017-12-19T06:25:05.134Z,1025.82
2017-12-19T06:26:05.092Z,1025.88
2017-12-19T06:27:05.097Z,1025.93
2017-12-19T06:28:05.106Z,1025.90
2017-12-19T06:29:05.293Z,1025.87
2017-12-19T06:30:05.638Z,1025.90
2017-12-19T06:31:05.120Z,1025.87
2017-12-19T06:32:05.128Z,1025.87
2017-12-19T06:33:05.132Z,1025.88
2017-12-19T06:34:05.147Z,1025.89
2017-12-19T06:35:05.146Z,1025.90
2017-12-19T06:36:05.149Z,1025.84
2017-12-19T06:37:05.165Z,1025.85
2017-12-19T06:38:05.183Z,1025.82
2017-12-19T06:39:05.170Z,1025.84
2017-12-19T06:40:05.173Z,1025.80
2017-12-19T06:41:05.177Z,1025.83
2017-12-19T06:42:05.269Z,1025.85
2017-12-19T06:43:05.186Z,1025.85
2017-12-19T06:44:05.205Z,1025.85
2017-12-19T06:45:05.201Z,1025.89
2017-12-19T06:46:05.209Z,1025.93
2017-12-19T06:47:05.323Z,1025.88
2017-12-19T06:48:05.254Z,1025.89
2017-12-19T06:49:05.225Z,1025.88
2017-12-19T06:50:05.236Z,1025.89
2017-12-19T06:51:05.234Z,1025.93
2017-12-19T06:52:05.239Z,1025.90
2017-12-19T06:53:05.243Z,1025.94
2017-12-19T06:54:05.249Z,1025.93
2017-12-19T06:55:05.276Z,1025.94
2017-12-19T06:56:05.255Z,1025.95
2017-12-19T06:57:05.261Z,1026.00
2017-12-19T06:58:05.537Z,1026.00
2017-12-19T06:59:05.277Z,1025.98
2017-12-19T07:00:05.290Z,1026.03
2017-12-19T07:01:05.282Z,1026.01
2017-12-19T07:02:05.299Z,1026.02
2017-12-19T07:03:05.295Z,1025.97
2017-12-19T07:04:05.309Z,1026.06
2017-12-19T07:05:05.314Z,1026.00
2017-12-19T07:06:05.320Z,1025.98
2017-12-19T07:07:05.327Z,1025.97
2017-12-19T07:08:05.333Z,1025.95
2017-12-19T07:09:05.339Z,1025.99
2017-12-19T07:10:05.402Z,1025.99
2017-12-19T07:11:05.379Z,1025.91
2017-12-19T07:12:05.355Z,1025.96
2017-12-19T07:13:05.360Z,1025.95
2017-12-19T07:14:05.840Z,1025.90
2017-12-19T07:15:05.387Z,1025.85
2017-12-19T07:16:05.380Z,1025.88
2017-12-19T07:17:05.382Z,1025.87
2017-12-19T07:18:05.382Z,1025.89
2017-12-19T07:19:05.393Z,1025.88
2017-12-19T07:20:05.389Z,1025.88
2017-12-19T07:21:05.425Z,1025.88
2017-12-19T07:22:05.437Z,1025.89
2017-12-19T07:23:05.416Z,1025.92
2017-12-19T07:24:05.421Z,1025.93
2017-12-19T07:25:05.432Z,1025.91
2017-12-19T07:26:05.430Z,1025.86
2017-12-19T07:27:05.443Z,1025.80
2017-12-19T07:28:05.440Z,1025.82
2017-12-19T07:29:05.454Z,1025.83
2017-12-19T07:30:05.454Z,1025.81
2017-12-19T07:31:05.461Z,1025.87
2017-12-19T07:32:05.465Z,1025.85
2017-12-19T07:33:05.472Z,1025.87
2017-12-19T07:34:05.477Z,1025.87
2017-12-19T07:35:05.483Z,1025.90
2017-12-19T07:36:05.501Z,1025.86
2017-12-19T07:37:05.496Z,1025.91
2017-12-19T07:38:05.498Z,1025.94
2017-12-19T07:39:05.507Z,1025.94
2017-12-19T07:40:05.511Z,1025.94
2017-12-19T07:41:05.518Z,1025.97
2017-12-19T07:42:05.523Z,1025.92
2017-12-19T07:43:05.529Z,1025.96
2017-12-19T07:44:05.531Z,1025.91
2017-12-19T07:45:05.553Z,1025.92
2017-12-19T07:46:05.567Z,1025.93
2017-12-19T07:47:05.549Z,1025.93
2017-12-19T07:48:05.558Z,1025.91
2017-12-19T07:49:05.555Z,1025.95
2017-12-19T07:50:05.564Z,1025.95
2017-12-19T07:51:05.577Z,1025.98
2017-12-19T07:52:05.578Z,1025.98
2017-12-19T07:53:05.579Z,1026.02
2017-12-19T07:54:05.589Z,1026.02
2017-12-19T07:55:05.585Z,1026.04
2017-12-19T07:56:05.608Z,1026.02
2017-12-19T07:57:05.598Z,1026.07
2017-12-19T07:58:05.605Z,1026.06
2017-12-19T07:59:05.613Z,1026.12
2017-12-19T08:00:05.623Z,1026.06
2017-12-19T08:01:05.717Z,1026.11
2017-12-19T08:02:05.619Z,1026.08
2017-12-19T08:03:05.637Z,1026.13
2017-12-19T08:04:05.650Z,1026.11
2017-12-19T08:05:05.662Z,1026.13
2017-12-19T08:06:05.648Z,1026.11
2017-12-19T08:07:05.651Z,1026.15
2017-12-19T08:08:05.659Z,1026.12
2017-12-19T08:09:05.672Z,1026.13
2017-12-19T08:10:05.672Z,1026.11
2017-12-19T08:11:05.791Z,1026.12
2017-12-19T08:12:05.679Z,1026.16
2017-12-19T08:13:05.689Z,1026.14
2017-12-19T08:14:05.747Z,1026.15
2017-12-19T08:15:05.702Z,1026.22
2017-12-19T08:16:05.711Z,1026.19
2017-12-19T08:17:05.714Z,1026.18
2017-12-19T08:18:05.714Z,1026.14
2017-12-19T08:19:05.726Z,1026.14
2017-12-19T08:20:05.735Z,1026.14
2017-12-19T08:21:05.738Z,1026.17
2017-12-19T08:22:05.741Z,1026.19
2017-12-19T08:23:05.759Z,1026.20
2017-12-19T08:24:05.759Z,1026.20
2017-12-19T08:25:05.763Z,1026.19
2017-12-19T08:26:05.767Z,1026.17
2017-12-19T08:27:05.759Z,1026.19
2017-12-19T08:28:05.780Z,1026.24
2017-12-19T08:29:05.784Z,1026.18
2017-12-19T08:30:05.783Z,1026.22
2017-12-19T08:31:05.794Z,1026.21
2017-12-19T08:32:05.805Z,1026.27
2017-12-19T08:33:05.971Z,1026.26
2017-12-19T08:34:05.813Z,1026.29
2017-12-19T08:35:05.813Z,1026.24
2017-12-19T08:36:05.826Z,1026.35
2017-12-19T08:37:05.836Z,1026.31
2017-12-19T08:38:05.847Z,1026.31
2017-12-19T08:39:05.900Z,1026.32
2017-12-19T08:40:05.847Z,1026.34
2017-12-19T08:41:05.851Z,1026.33
2017-12-19T08:42:05.856Z,1026.38
2017-12-19T08:43:05.862Z,1026.38
2017-12-19T08:44:05.869Z,1026.43
2017-12-19T08:45:05.872Z,1026.42
2017-12-19T08:46:05.882Z,1026.39
2017-12-19T08:47:06.032Z,1026.40
2017-12-19T08:48:05.892Z,1026.44
2017-12-19T08:49:05.922Z,1026.44
2017-12-19T08:50:05.894Z,1026.42
2017-12-19T08:51:05.941Z,1026.43
2017-12-19T08:52:06.052Z,1026.43
2017-12-19T08:53:05.927Z,1026.42
2017-12-19T08:54:05.927Z,1026.44
2017-12-19T08:55:05.952Z,1026.43
2017-12-19T08:56:05.986Z,1026.42
2017-12-19T08:57:05.949Z,1026.50
2017-12-19T08:58:05.955Z,1026.46
2017-12-19T08:59:05.962Z,1026.55
2017-12-19T09:00:05.973Z,1026.49
2017-12-19T09:01:05.967Z,1026.49
2017-12-19T09:02:05.977Z,1026.43
2017-12-19T09:03:05.980Z,1026.50
2017-12-19T09:04:05.990Z,1026.48
2017-12-19T09:05:05.994Z,1026.52
2017-12-19T09:06:06.008Z,1026.52
2017-12-19T09:07:06.015Z,1026.52
2017-12-19T09:08:06.026Z,1026.50
2017-12-19T09:09:06.011Z,1026.50
2017-12-19T09:11:06.016Z,1026.56
2017-12-19T09:12:06.025Z,1026.49
2017-12-19T09:13:06.044Z,1026.50
2017-12-19T09:14:06.038Z,1026.56
2017-12-19T09:16:06.103Z,1026.57
2017-12-19T09:17:06.050Z,1026.57
2017-12-19T09:18:06.135Z,1026.54
2017-12-19T09:19:06.065Z,1026.52
2017-12-19T09:20:06.091Z,1026.57
2017-12-19T09:21:06.091Z,1026.57
2017-12-19T09:22:06.091Z,1026.55
2017-12-19T09:23:06.101Z,1026.58
2017-12-19T09:24:06.111Z,1026.58
2017-12-19T09:26:06.111Z,1026.59
2017-12-19T09:27:06.122Z,1026.58
2017-12-19T09:28:06.207Z,1026.59
2017-12-19T09:29:06.131Z,1026.60
2017-12-19T09:30:06.138Z,1026.62
2017-12-19T09:31:06.142Z,1026.63
2017-12-19T09:32:06.144Z,1026.66
2017-12-19T09:33:06.143Z,1026.61
2017-12-19T09:34:06.218Z,1026.63
2017-12-19T09:35:06.158Z,1026.66
2017-12-19T09:36:06.196Z,1026.70
2017-12-19T09:37:06.178Z,1026.68
2017-12-19T09:38:06.185Z,1026.70
2017-12-19T09:39:06.190Z,1026.68
2017-12-19T09:40:06.190Z,1026.66
2017-12-19T09:41:06.194Z,1026.68
2017-12-19T09:42:06.226Z,1026.65
2017-12-19T09:43:06.212Z,1026.69
2017-12-19T09:44:06.216Z,1026.61
2017-12-19T09:45:06.228Z,1026.62
2017-12-19T09:46:06.260Z,1026.63
2017-12-19T09:47:06.238Z,1026.65
2017-12-19T09:48:06.247Z,1026.71
2017-12-19T09:49:06.252Z,1026.74
2017-12-19T09:50:06.263Z,1026.69
2017-12-19T09:51:06.263Z,1026.70
2017-12-19T09:52:06.275Z,1026.67
2017-12-19T09:53:06.279Z,1026.69
2017-12-19T09:54:06.284Z,1026.76
2017-12-19T09:55:06.300Z,1026.77
2017-12-19T09:56:06.298Z,1026.75
2017-12-19T09:57:06.305Z,1026.77
2017-12-19T09:58:06.320Z,1026.77
2017-12-19T09:59:06.314Z,1026.77
2017-12-19T10:00:06.323Z,1026.74
2017-12-19T10:01:06.329Z,1026.76
2017-12-19T10:02:06.327Z,1026.84
2017-12-19T10:03:06.352Z,1026.80
2017-12-19T10:04:06.348Z,1026.78
2017-12-19T10:05:06.351Z,1026.78
2017-12-19T10:06:06.475Z,1026.77
2017-12-19T10:07:06.368Z,1026.79
2017-12-19T10:08:06.371Z,1026.79
2017-12-19T10:09:06.390Z,1026.77
2017-12-19T10:10:06.391Z,1026.75
2017-12-19T10:11:06.403Z,1026.76
2017-12-19T10:12:06.396Z,1026.74
2017-12-19T10:13:06.401Z,1026.78
2017-12-19T10:14:06.406Z,1026.80
2017-12-19T10:15:06.417Z,1026.78
2017-12-19T10:16:06.422Z,1026.79
2017-12-19T10:17:06.425Z,1026.82
2017-12-19T10:18:06.432Z,1026.80
2017-12-19T10:19:07.148Z,1026.83
2017-12-19T10:20:06.448Z,1026.81
2017-12-19T10:21:06.482Z,1026.83
2017-12-19T10:23:06.457Z,1026.81
2017-12-19T10:24:06.476Z,1026.84
2017-12-19T10:25:06.482Z,1026.81
2017-12-19T10:26:06.492Z,1026.80
2017-12-19T10:27:06.492Z,1026.80
2017-12-19T10:28:06.499Z,1026.80
2017-12-19T10:29:06.594Z,1026.80
2017-12-19T10:30:06.517Z,1026.78
2017-12-19T10:31:06.525Z,1026.74
2017-12-19T10:32:06.534Z,1026.69
2017-12-19T10:33:06.523Z,1026.75
2017-12-19T10:35:06.549Z,1026.75
2017-12-19T10:36:06.554Z,1026.76
2017-12-19T10:37:06.561Z,1026.73
2017-12-19T10:38:06.571Z,1026.69
2017-12-19T10:39:06.689Z,1026.67
2017-12-19T10:40:06.584Z,1026.69
2017-12-19T10:41:06.586Z,1026.65
2017-12-19T10:42:06.614Z,1026.68
2017-12-19T10:43:06.592Z,1026.66
2017-12-19T10:44:06.713Z,1026.66
2017-12-19T10:45:06.624Z,1026.64
2017-12-19T10:46:06.617Z,1026.65
2017-12-19T10:47:06.639Z,1026.71
2017-12-19T10:48:06.642Z,1026.68
2017-12-19T10:49:06.638Z,1026.64
2017-12-19T10:50:07.089Z,1026.67
2017-12-19T10:51:06.650Z,1026.70
2017-12-19T10:52:06.668Z,1026.70
2017-12-19T10:53:06.675Z,1026.73
2017-12-19T10:54:06.678Z,1026.73
2017-12-19T10:55:06.694Z,1026.79
2017-12-19T10:56:06.703Z,1026.77
2017-12-19T10:57:06.703Z,1026.76
2017-12-19T10:58:06.700Z,1026.75
2017-12-19T10:59:06.717Z,1026.81
2017-12-19T11:00:06.713Z,1026.81
2017-12-19T11:01:06.730Z,1026.81
2017-12-19T11:02:06.736Z,1026.84
2017-12-19T11:03:06.752Z,1026.79
2017-12-19T11:04:06.753Z,1026.80
2017-12-19T11:05:06.758Z,1026.87
2017-12-19T11:06:06.764Z,1026.80
2017-12-19T11:07:06.795Z,1026.80
2017-12-19T11:08:06.776Z,1026.79
2017-12-19T11:09:06.983Z,1026.74
2017-12-19T11:10:06.794Z,1026.74
2017-12-19T11:11:06.800Z,1026.75
2017-12-19T11:12:06.808Z,1026.75
2017-12-19T11:13:06.815Z,1026.73
2017-12-19T11:14:06.822Z,1026.72
2017-12-19T11:15:06.828Z,1026.68
2017-12-19T11:16:06.838Z,1026.65
2017-12-19T11:17:06.836Z,1026.67
2017-12-19T11:18:06.846Z,1026.65
2017-12-19T11:19:06.904Z,1026.65
2017-12-19T11:20:06.915Z,1026.68
2017-12-19T11:21:06.890Z,1026.66
2017-12-19T11:22:06.875Z,1026.67
2017-12-19T11:23:06.882Z,1026.66
2017-12-19T11:24:06.896Z,1026.66
2017-12-19T11:25:06.898Z,1026.62
2017-12-19T11:26:06.904Z,1026.60
2017-12-19T11:27:06.958Z,1026.61
2017-12-19T11:28:06.921Z,1026.56
2017-12-19T11:29:06.931Z,1026.60
2017-12-19T11:30:06.935Z,1026.58
2017-12-19T11:31:06.943Z,1026.60
2017-12-19T11:32:06.952Z,1026.56
2017-12-19T11:33:06.960Z,1026.60
2017-12-19T11:34:06.971Z,1026.56
2017-12-19T11:35:06.972Z,1026.59
2017-12-19T11:36:06.990Z,1026.58
2017-12-19T11:37:06.991Z,1026.60
2017-12-19T11:38:06.993Z,1026.57
2017-12-19T11:39:07.003Z,1026.52
2017-12-19T11:40:07.007Z,1026.51
2017-12-19T11:41:07.014Z,1026.53
2017-12-19T11:42:07.016Z,1026.45
2017-12-19T11:43:07.038Z,1026.46
2017-12-19T11:44:07.039Z,1026.43
2017-12-19T11:45:07.037Z,1026.45
2017-12-19T11:46:07.051Z,1026.42
2017-12-19T11:47:07.089Z,1026.42
2017-12-19T11:48:07.074Z,1026.47
2017-12-19T11:49:07.076Z,1026.43
2017-12-19T11:50:07.080Z,1026.41
2017-12-19T11:51:07.090Z,1026.40
2017-12-19T11:52:07.109Z,1026.43
2017-12-19T11:53:07.124Z,1026.43
2017-12-19T11:54:07.119Z,1026.37
2017-12-19T11:55:07.116Z,1026.35
2017-12-19T11:56:07.123Z,1026.39
2017-12-19T11:57:07.135Z,1026.37
2017-12-19T11:58:07.198Z,1026.38
2017-12-19T11:59:07.147Z,1026.34
2017-12-19T12:00:07.170Z,1026.39
2017-12-19T12:01:07.166Z,1026.36
2017-12-19T12:02:07.233Z,1026.40
2017-12-19T12:03:07.176Z,1026.37
2017-12-19T12:04:07.202Z,1026.36
2017-12-19T12:05:07.189Z,1026.38
2017-12-19T12:06:07.201Z,1026.36
2017-12-19T12:07:07.215Z,1026.36
2017-12-19T12:08:07.210Z,1026.34
2017-12-19T12:09:07.223Z,1026.36
2017-12-19T12:10:07.226Z,1026.32
2017-12-19T12:11:07.272Z,1026.31
2017-12-19T12:12:07.237Z,1026.33
2017-12-19T12:13:07.269Z,1026.26